createdAt,value
2022-08-30T00:02:21.075Z,68.26
2022-08-30T00:04:48.273Z,68.12
2022-08-30T00:07:15.912Z,68.19
2022-08-30T00:09:42.659Z,68.20
2022-08-30T00:12:09.908Z,68.47
2022-08-30T00:14:37.603Z,68.77
2022-08-30T00:17:04.514Z,68.74
2022-08-30T00:19:31.340Z,68.82
2022-08-30T00:21:58.257Z,68.89
2022-08-30T00:24:25.076Z,68.87
2022-08-30T00:26:51.877Z,68.86
2022-08-30T00:29:18.723Z,68.87
2022-08-30T00:31:45.545Z,68.90
2022-08-30T00:34:12.309Z,69.01
2022-08-30T00:36:39.037Z,69.18
2022-08-30T00:39:06.445Z,69.33
2022-08-30T00:41:33.404Z,69.03
2022-08-30T00:44:00.872Z,69.14
2022-08-30T00:46:28.256Z,69.24
2022-08-30T00:48:56.406Z,68.91
2022-08-30T00:51:24.201Z,69.21
2022-08-30T00:53:57.025Z,68.95
2022-08-30T00:56:25.769Z,68.59
2022-08-30T00:58:56.110Z,69.03
2022-08-30T01:01:23.832Z,69.20
2022-08-30T01:03:51.002Z,69.07
2022-08-30T01:06:18.469Z,68.79
2022-08-30T01:08:47.350Z,68.92
2022-08-30T01:11:18.896Z,68.81
2022-08-30T01:13:49.533Z,69.11
2022-08-30T01:16:16.691Z,68.89
2022-08-30T01:18:44.540Z,68.87
2022-08-30T01:21:24.242Z,68.83
2022-08-30T01:23:53.912Z,69.38
2022-08-30T01:26:22.267Z,69.59
2022-08-30T01:28:55.784Z,70.11
2022-08-30T01:31:22.954Z,70.29
2022-08-30T01:33:51.175Z,70.40
2022-08-30T01:36:20.037Z,70.46
2022-08-30T01:38:50.296Z,70.78
2022-08-30T01:41:21.931Z,70.61
2022-08-30T01:43:51.321Z,71.06
2022-08-30T01:46:20.600Z,71.54
2022-08-30T01:48:53.102Z,71.83
2022-08-30T01:51:22.074Z,72.18
2022-08-30T01:53:49.265Z,72.49
2022-08-30T01:56:16.578Z,72.60
2022-08-30T01:58:44.337Z,72.84
2022-08-30T02:01:13.926Z,72.55
2022-08-30T02:03:44.000Z,72.41
2022-08-30T02:06:14.689Z,72.72
2022-08-30T02:08:41.815Z,72.89
2022-08-30T02:11:09.763Z,73.21
2022-08-30T02:13:37.729Z,72.99
2022-08-30T02:16:13.753Z,73.32
2022-08-30T02:18:41.337Z,73.50
2022-08-30T02:21:09.059Z,73.63
2022-08-30T02:23:36.251Z,73.75
2022-08-30T02:26:04.048Z,73.86
2022-08-30T02:28:30.847Z,73.91
2022-08-30T02:30:57.965Z,74.15
2022-08-30T02:33:24.751Z,74.04
2022-08-30T02:35:52.355Z,74.21
2022-08-30T02:38:19.967Z,74.28
2022-08-30T02:40:47.120Z,74.23
2022-08-30T02:43:13.993Z,74.44
2022-08-30T02:45:40.899Z,75.15
2022-08-30T02:48:08.252Z,75.60
2022-08-30T02:50:35.101Z,75.76
2022-08-30T02:53:01.880Z,75.67
2022-08-30T02:55:28.656Z,75.74
2022-08-30T02:57:55.485Z,75.68
2022-08-30T03:00:22.419Z,75.56
2022-08-30T03:02:49.414Z,76.09
2022-08-30T03:05:18.005Z,76.33
2022-08-30T03:07:47.377Z,75.71
2022-08-30T03:10:15.630Z,75.68
2022-08-30T03:12:42.714Z,75.62
2022-08-30T03:15:13.200Z,75.73
2022-08-30T03:17:40.747Z,76.12
2022-08-30T03:20:09.017Z,76.04
2022-08-30T03:22:36.178Z,75.88
2022-08-30T03:25:04.056Z,75.63
2022-08-30T03:27:30.986Z,75.37
2022-08-30T03:29:58.073Z,75.12
2022-08-30T03:32:25.330Z,74.72
2022-08-30T03:34:52.082Z,75.02
2022-08-30T03:37:23.276Z,74.34
2022-08-30T03:39:52.421Z,74.08
2022-08-30T03:42:20.132Z,73.99
2022-08-30T03:44:48.342Z,74.12
2022-08-30T03:47:15.137Z,73.70
2022-08-30T03:49:41.987Z,73.73
2022-08-30T03:52:08.872Z,73.85
2022-08-30T03:54:35.720Z,73.69
2022-08-30T03:57:05.085Z,74.07
2022-08-30T03:59:31.995Z,74.41
2022-08-30T04:01:59.247Z,74.25
2022-08-30T04:04:26.269Z,74.02
2022-08-30T04:06:53.060Z,74.73
2022-08-30T04:09:20.038Z,74.50
2022-08-30T04:11:46.875Z,74.63
2022-08-30T04:14:14.036Z,74.31
2022-08-30T04:16:41.057Z,74.79
2022-08-30T04:19:08.029Z,74.52
2022-08-30T04:21:35.057Z,74.16
2022-08-30T04:24:09.696Z,74.54
2022-08-30T04:26:36.771Z,74.04
2022-08-30T04:29:04.505Z,73.83
2022-08-30T04:31:31.492Z,73.07
2022-08-30T04:33:58.406Z,72.02
2022-08-30T04:36:25.213Z,67.25
2022-08-30T04:38:52.021Z,64.15
2022-08-30T04:41:20.966Z,60.63
2022-08-30T04:43:51.662Z,58.42
2022-08-30T04:46:19.441Z,56.09
2022-08-30T04:48:47.281Z,54.42
2022-08-30T04:51:17.033Z,52.65
2022-08-30T04:53:44.651Z,51.25
2022-08-30T04:56:17.802Z,50.43
2022-08-30T04:58:46.785Z,48.96
2022-08-30T05:01:20.611Z,46.02
2022-08-30T05:03:51.576Z,44.11
2022-08-30T05:06:18.575Z,43.57
2022-08-30T05:08:46.868Z,41.50
2022-08-30T05:11:15.514Z,41.79
2022-08-30T05:13:43.270Z,40.88
2022-08-30T05:16:10.396Z,40.89
2022-08-30T05:18:37.473Z,39.66
2022-08-30T05:21:10.570Z,40.76
2022-08-30T05:23:39.424Z,39.98
2022-08-30T05:26:12.682Z,39.55
2022-08-30T05:28:40.203Z,38.23
2022-08-30T05:31:25.267Z,40.08
2022-08-30T05:33:54.271Z,39.22
2022-08-30T05:36:24.278Z,40.46
2022-08-30T05:38:51.428Z,39.96
2022-08-30T05:41:26.420Z,39.77
2022-08-30T05:43:56.481Z,38.42
2022-08-30T05:46:24.291Z,39.96
2022-08-30T05:48:51.855Z,37.65
2022-08-30T05:51:24.284Z,38.20
2022-08-30T05:53:52.916Z,40.10
2022-08-30T05:56:24.822Z,37.94
2022-08-30T05:58:53.034Z,38.10
2022-08-30T06:01:43.581Z,39.60
2022-08-30T06:04:12.976Z,38.69
2022-08-30T06:06:42.811Z,39.36
2022-08-30T06:09:12.069Z,38.23
2022-08-30T06:11:38.902Z,36.80
2022-08-30T06:14:06.353Z,36.83
2022-08-30T06:16:33.738Z,36.78
2022-08-30T06:19:00.671Z,35.59
2022-08-30T06:21:30.466Z,35.27
2022-08-30T06:23:58.799Z,36.17
2022-08-30T06:26:26.866Z,36.23
2022-08-30T06:28:54.382Z,37.96
2022-08-30T06:31:23.322Z,37.38
2022-08-30T06:33:51.530Z,33.92
2022-08-30T06:36:21.567Z,32.74
2022-08-30T06:38:52.125Z,32.14
2022-08-30T06:41:22.477Z,33.26
2022-08-30T06:43:49.882Z,31.80
2022-08-30T06:46:20.794Z,33.74
2022-08-30T06:48:48.598Z,33.69
2022-08-30T06:51:19.749Z,34.76
2022-08-30T06:53:46.578Z,35.09
2022-08-30T06:56:16.544Z,34.40
2022-08-30T06:58:44.814Z,35.06
2022-08-30T07:01:14.411Z,32.21
2022-08-30T07:03:41.337Z,32.44
2022-08-30T07:06:08.305Z,35.64
2022-08-30T07:08:35.678Z,37.95
2022-08-30T07:11:02.654Z,36.38
2022-08-30T07:13:29.528Z,36.68
2022-08-30T07:15:56.491Z,36.35
2022-08-30T07:18:42.121Z,35.76
2022-08-30T07:21:12.441Z,33.20
2022-08-30T07:23:39.875Z,33.14
2022-08-30T07:26:08.663Z,31.48
2022-08-30T07:28:37.873Z,33.15
2022-08-30T07:31:06.038Z,34.92
2022-08-30T07:33:33.553Z,36.02
2022-08-30T07:36:00.598Z,33.98
2022-08-30T07:38:30.323Z,32.68
2022-08-30T07:41:01.190Z,33.32
2022-08-30T07:43:33.157Z,35.54
2022-08-30T07:46:06.249Z,35.89
2022-08-30T07:48:34.450Z,35.16
2022-08-30T07:51:05.193Z,34.70
2022-08-30T07:53:32.345Z,33.55
2022-08-30T07:55:59.275Z,32.52
2022-08-30T07:58:26.077Z,33.34
2022-08-30T08:00:52.899Z,32.96
2022-08-30T08:03:19.719Z,35.27
2022-08-30T08:05:46.704Z,33.39
2022-08-30T08:08:14.485Z,33.47
2022-08-30T08:10:43.207Z,35.39
2022-08-30T08:13:10.271Z,35.54
2022-08-30T08:15:37.554Z,35.04
2022-08-30T08:18:05.673Z,33.65
2022-08-30T08:20:34.552Z,34.22
2022-08-30T08:23:01.560Z,34.53
2022-08-30T08:25:28.958Z,34.58
2022-08-30T08:27:57.617Z,34.62
2022-08-30T08:30:24.984Z,32.84
2022-08-30T08:32:52.662Z,36.70
2022-08-30T08:35:19.754Z,34.74
2022-08-30T08:37:46.517Z,35.53
2022-08-30T08:40:16.914Z,37.29
2022-08-30T08:42:58.879Z,35.54
2022-08-30T08:45:47.455Z,37.04
2022-08-30T08:48:51.848Z,35.43
2022-08-30T08:51:41.205Z,36.40
2022-08-30T08:54:14.383Z,36.05
2022-08-30T08:56:41.301Z,35.08
2022-08-30T08:59:11.628Z,34.89
2022-08-30T09:01:39.198Z,35.76
2022-08-30T09:04:15.280Z,35.78
2022-08-30T09:06:57.588Z,34.52
2022-08-30T09:09:47.722Z,36.27
2022-08-30T09:12:14.959Z,36.30
2022-08-30T09:14:46.893Z,37.13
2022-08-30T09:17:15.861Z,36.25
2022-08-30T09:19:52.888Z,36.67
2022-08-30T09:22:27.794Z,37.06
2022-08-30T09:24:59.365Z,36.10
2022-08-30T09:27:32.400Z,35.27
2022-08-30T09:30:05.465Z,35.77
2022-08-30T09:32:50.032Z,36.25
2022-08-30T09:35:49.944Z,37.83
2022-08-30T09:38:24.267Z,36.92
2022-08-30T09:40:56.532Z,35.51
2022-08-30T09:43:31.769Z,35.47
2022-08-30T09:46:02.068Z,34.05
2022-08-30T09:48:37.267Z,33.24
2022-08-30T09:51:10.214Z,34.40
2022-08-30T09:57:03.702Z,33.39
2022-08-30T09:59:43.442Z,33.03
2022-08-30T10:02:25.978Z,32.63
2022-08-30T10:05:45.770Z,32.68
2022-08-30T10:08:46.260Z,32.99
2022-08-30T10:11:32.410Z,32.81
2022-08-30T10:14:27.854Z,33.13
2022-08-30T10:16:57.079Z,31.19
2022-08-30T10:19:36.906Z,31.89
2022-08-30T10:22:37.849Z,33.18
2022-08-30T10:25:22.288Z,33.69
2022-08-30T10:28:12.070Z,32.72
2022-08-30T10:30:45.305Z,31.78
2022-08-30T10:33:25.507Z,32.23
2022-08-30T10:36:13.053Z,31.48
2022-08-30T10:38:46.646Z,32.08
2022-08-30T10:41:33.828Z,32.71
2022-08-30T10:44:12.334Z,32.03
2022-08-30T10:46:58.485Z,31.02
2022-08-30T10:49:28.979Z,32.11
2022-08-30T10:52:23.567Z,30.87
2022-08-30T10:54:55.423Z,32.45
2022-08-30T10:57:22.769Z,32.39
2022-08-30T10:59:57.875Z,30.96
2022-08-30T11:03:08.991Z,30.94
2022-08-30T11:05:57.466Z,32.90
2022-08-30T11:09:02.620Z,30.78
2022-08-30T11:11:40.724Z,31.23
2022-08-30T11:14:12.031Z,29.75
2022-08-30T11:16:46.092Z,31.21
2022-08-30T11:19:38.201Z,30.15
2022-08-30T11:22:15.815Z,30.62
2022-08-30T11:25:10.111Z,31.57
2022-08-30T11:27:58.929Z,30.56
2022-08-30T11:30:26.445Z,31.33
2022-08-30T11:33:11.178Z,30.15
2022-08-30T11:35:52.416Z,30.89
2022-08-30T11:38:25.508Z,30.73
2022-08-30T11:41:14.142Z,30.59
2022-08-30T11:43:43.861Z,30.67
2022-08-30T11:46:17.397Z,30.77
2022-08-30T11:48:54.321Z,30.90
2022-08-30T11:51:23.473Z,30.81
2022-08-30T11:53:51.034Z,31.16
2022-08-30T11:56:31.594Z,30.33
2022-08-30T11:59:05.059Z,31.47
2022-08-30T12:01:50.705Z,31.21
2022-08-30T12:04:21.375Z,31.28
2022-08-30T12:06:53.172Z,30.53
2022-08-30T12:09:26.009Z,30.31
2022-08-30T12:11:55.231Z,30.23
2022-08-30T12:14:40.858Z,30.65
2022-08-30T12:17:42.864Z,30.95
2022-08-30T12:20:47.975Z,31.14
2022-08-30T12:23:20.198Z,31.31
2022-08-30T12:25:47.724Z,30.62
2022-08-30T12:28:24.276Z,30.71
2022-08-30T12:30:52.448Z,30.85
2022-08-30T12:33:42.897Z,30.81
2022-08-30T12:36:15.172Z,30.35
2022-08-30T12:38:42.241Z,30.15
2022-08-30T12:41:19.159Z,31.23
2022-08-30T12:43:52.004Z,31.83
2022-08-30T12:46:21.551Z,31.94
2022-08-30T12:48:49.860Z,31.14
2022-08-30T12:51:37.281Z,30.46
2022-08-30T12:54:29.197Z,31.42
2022-08-30T12:57:32.074Z,31.50
2022-08-30T12:59:59.814Z,31.13
2022-08-30T13:02:52.096Z,30.89
2022-08-30T13:05:45.791Z,31.10
2022-08-30T13:08:36.738Z,31.24
2022-08-30T13:11:12.060Z,30.93
2022-08-30T13:13:41.564Z,30.17
2022-08-30T13:16:24.850Z,31.24
2022-08-30T13:19:34.309Z,31.50
2022-08-30T13:22:01.927Z,31.50
2022-08-30T13:24:29.486Z,31.40
2022-08-30T13:27:01.822Z,30.23
2022-08-30T13:29:29.304Z,30.43
2022-08-30T13:31:56.618Z,31.77
2022-08-30T13:34:23.771Z,31.76
2022-08-30T13:36:54.494Z,31.55
2022-08-30T13:39:21.825Z,31.97
2022-08-30T13:41:49.150Z,32.06
2022-08-30T13:44:16.360Z,32.06
2022-08-30T13:46:53.386Z,31.84
2022-08-30T13:49:44.272Z,32.25
2022-08-30T13:52:22.598Z,32.56
2022-08-30T13:54:51.763Z,32.98
2022-08-30T14:00:14.743Z,32.37
2022-08-30T14:02:47.579Z,33.41
2022-08-30T14:05:46.991Z,33.62
2022-08-30T14:08:05.125Z,34.06
2022-08-30T14:10:33.860Z,32.84
2022-08-30T14:13:17.804Z,32.47
2022-08-30T14:15:44.690Z,33.16
2022-08-30T14:18:17.657Z,33.72
2022-08-30T14:20:45.119Z,33.72
2022-08-30T14:23:12.030Z,33.48
2022-08-30T14:25:40.324Z,33.67
2022-08-30T14:28:08.270Z,33.56
2022-08-30T14:30:37.193Z,32.87
2022-08-30T14:33:04.147Z,32.65
2022-08-30T14:35:31.192Z,32.61
2022-08-30T14:37:58.636Z,33.31
2022-08-30T14:40:26.106Z,32.97
2022-08-30T14:42:52.996Z,32.96
2022-08-30T14:45:20.097Z,32.87
2022-08-30T14:47:47.443Z,33.14
2022-08-30T14:50:14.507Z,32.74
2022-08-30T14:52:41.497Z,33.04
2022-08-30T14:55:12.792Z,33.47
2022-08-30T14:57:39.582Z,32.94
2022-08-30T15:00:08.883Z,33.08
2022-08-30T15:02:36.078Z,33.32
2022-08-30T15:05:03.660Z,33.82
2022-08-30T15:07:33.964Z,34.45
2022-08-30T15:10:01.180Z,34.82
2022-08-30T15:12:28.597Z,34.09
2022-08-30T15:14:55.928Z,34.06
2022-08-30T15:17:22.815Z,34.18
2022-08-30T15:19:49.715Z,33.78
2022-08-30T15:22:17.219Z,33.40
2022-08-30T15:24:44.258Z,33.63
2022-08-30T15:27:15.973Z,33.48
2022-08-30T15:29:42.874Z,33.38
2022-08-30T15:32:09.649Z,34.03
2022-08-30T15:34:36.482Z,33.30
2022-08-30T15:37:05.042Z,33.95
2022-08-30T15:39:32.271Z,33.53
2022-08-30T15:42:01.193Z,33.89
2022-08-30T15:44:32.562Z,34.31
2022-08-30T15:47:01.682Z,34.48
2022-08-30T15:49:29.084Z,34.91
2022-08-30T15:52:01.307Z,34.62
2022-08-30T15:54:28.233Z,35.00
2022-08-30T15:56:59.580Z,35.03
2022-08-30T15:59:31.037Z,34.81
2022-08-30T16:01:58.388Z,34.59
2022-08-30T16:04:26.189Z,35.40
2022-08-30T16:06:53.455Z,34.96
2022-08-30T16:09:20.909Z,34.89
2022-08-30T16:11:48.564Z,34.30
2022-08-30T16:14:15.347Z,34.84
2022-08-30T16:16:42.354Z,34.96
2022-08-30T16:19:09.541Z,35.23
2022-08-30T16:21:37.895Z,35.64
2022-08-30T16:24:07.075Z,35.68
2022-08-30T16:26:35.085Z,36.22
2022-08-30T16:29:04.291Z,35.95
2022-08-30T16:31:35.154Z,35.82
2022-08-30T16:34:04.175Z,36.20
2022-08-30T16:36:32.493Z,36.46
2022-08-30T16:39:00.406Z,35.86
2022-08-30T16:41:27.656Z,36.03
2022-08-30T16:43:55.108Z,36.39
2022-08-30T16:46:33.331Z,36.28
2022-08-30T16:49:05.240Z,37.02
2022-08-30T16:51:34.736Z,37.17
2022-08-30T16:54:04.673Z,37.61
2022-08-30T16:56:32.963Z,37.59
2022-08-30T16:59:02.577Z,38.36
2022-08-30T17:01:35.478Z,38.20
2022-08-30T17:04:03.790Z,38.54
2022-08-30T17:06:30.649Z,39.31
2022-08-30T17:08:58.969Z,39.58
2022-08-30T17:11:26.018Z,39.57
2022-08-30T17:13:53.044Z,40.00
2022-08-30T17:16:27.352Z,40.22
2022-08-30T17:18:55.238Z,41.73
2022-08-30T17:21:22.358Z,41.24
2022-08-30T17:23:50.403Z,41.50
2022-08-30T17:26:18.422Z,41.75
2022-08-30T17:28:45.759Z,42.17
2022-08-30T17:31:12.817Z,42.30
2022-08-30T17:33:43.197Z,42.76
2022-08-30T17:36:12.900Z,42.99
2022-08-30T17:38:44.812Z,43.23
2022-08-30T17:41:12.337Z,43.40
2022-08-30T17:43:39.645Z,43.97
2022-08-30T17:46:09.924Z,44.04
2022-08-30T17:48:38.532Z,44.41
2022-08-30T17:51:06.228Z,44.40
2022-08-30T17:53:34.892Z,44.49
2022-08-30T17:56:02.943Z,44.64
2022-08-30T17:58:29.742Z,44.57
2022-08-30T18:01:12.253Z,44.65
2022-08-30T18:03:39.566Z,44.81
2022-08-30T18:06:07.150Z,45.03
2022-08-30T18:08:35.079Z,45.15
2022-08-30T18:11:05.976Z,45.94
2022-08-30T18:13:33.319Z,46.82
2022-08-30T18:16:04.759Z,48.26
2022-08-30T18:18:32.626Z,49.06
2022-08-30T18:20:59.933Z,49.17
2022-08-30T18:23:27.199Z,49.99
2022-08-30T18:25:59.114Z,49.90
2022-08-30T18:28:26.290Z,50.16
2022-08-30T18:30:57.104Z,50.24
2022-08-30T18:33:25.705Z,50.86
2022-08-30T18:35:53.575Z,50.67
2022-08-30T18:38:23.825Z,51.11
2022-08-30T18:40:53.259Z,51.38
2022-08-30T18:43:22.943Z,51.93
2022-08-30T18:45:57.336Z,51.82
2022-08-30T18:48:24.081Z,52.46
2022-08-30T18:50:54.240Z,52.48
2022-08-30T18:53:28.640Z,53.33
2022-08-30T18:55:57.243Z,53.48
2022-08-30T18:58:24.230Z,54.09
2022-08-30T19:00:51.496Z,54.74
2022-08-30T19:03:19.119Z,55.56
2022-08-30T19:05:46.498Z,54.10
2022-08-30T19:08:13.791Z,55.38
2022-08-30T19:10:41.089Z,55.74
2022-08-30T19:13:08.412Z,56.39
2022-08-30T19:15:36.076Z,56.58
2022-08-30T19:18:16.664Z,56.98
2022-08-30T19:20:44.209Z,56.95
2022-08-30T19:23:11.019Z,56.69
2022-08-30T19:25:39.764Z,57.06
2022-08-30T19:28:07.223Z,56.93
2022-08-30T19:30:34.584Z,57.00
2022-08-30T19:35:51.731Z,57.13
2022-08-30T19:38:18.922Z,57.40
2022-08-30T19:40:51.016Z,57.19
2022-08-30T19:43:20.698Z,57.06
2022-08-30T19:45:56.080Z,56.52
2022-08-30T19:51:14.971Z,56.38
2022-08-30T19:53:42.950Z,56.60
2022-08-30T19:56:10.082Z,57.19
2022-08-30T19:58:36.897Z,57.69
2022-08-30T20:01:10.656Z,57.93
2022-08-30T20:03:47.518Z,57.99
2022-08-30T20:06:20.065Z,57.43
2022-08-30T20:08:47.692Z,57.84
2022-08-30T20:11:20.105Z,58.19
2022-08-30T20:13:48.466Z,58.17
2022-08-30T20:16:16.093Z,57.58
2022-08-30T20:18:44.416Z,58.15
2022-08-30T20:21:14.442Z,58.52
2022-08-30T20:23:44.667Z,58.43
2022-08-30T20:26:13.324Z,58.49
2022-08-30T20:28:42.501Z,59.29
2022-08-30T20:31:10.795Z,59.48
2022-08-30T20:33:38.678Z,59.79
2022-08-30T20:36:07.147Z,59.80
2022-08-30T20:38:34.197Z,59.89
2022-08-30T20:41:02.767Z,60.23
2022-08-30T20:43:30.762Z,59.90
2022-08-30T20:45:57.709Z,59.12
2022-08-30T20:48:27.465Z,59.87
2022-08-30T20:50:54.528Z,60.21
2022-08-30T20:53:21.365Z,59.67
2022-08-30T20:55:48.137Z,59.52
2022-08-30T20:58:15.429Z,59.78
2022-08-30T21:00:46.002Z,59.85
2022-08-30T21:03:26.577Z,59.81
2022-08-30T21:05:56.246Z,59.20
2022-08-30T21:08:23.298Z,58.22
2022-08-30T21:10:50.194Z,58.36
2022-08-30T21:13:17.302Z,57.67
2022-08-30T21:15:46.170Z,57.78
2022-08-30T21:18:13.980Z,56.60
2022-08-30T21:20:41.425Z,56.80
2022-08-30T21:23:08.272Z,56.60
2022-08-30T21:25:38.953Z,57.58
2022-08-30T21:28:06.997Z,58.00
2022-08-30T21:30:35.516Z,58.19
2022-08-30T21:33:04.219Z,58.65
2022-08-30T21:35:49.747Z,59.09
2022-08-30T21:38:17.236Z,59.39
2022-08-30T21:40:44.970Z,59.37
2022-08-30T21:43:12.464Z,59.31
2022-08-30T21:45:43.873Z,59.09
2022-08-30T21:48:12.663Z,58.84
2022-08-30T21:50:41.836Z,58.10
2022-08-30T21:53:09.254Z,56.90
2022-08-30T21:55:35.979Z,56.39
2022-08-30T21:58:03.516Z,56.29
2022-08-30T22:00:31.829Z,55.62
2022-08-30T22:02:58.722Z,55.88
2022-08-30T22:05:25.849Z,56.42
2022-08-30T22:07:52.650Z,56.64
2022-08-30T22:10:21.100Z,57.16
2022-08-30T22:12:48.213Z,57.67
2022-08-30T22:15:15.612Z,57.68
2022-08-30T22:17:43.587Z,58.05
2022-08-30T22:20:11.977Z,58.65
2022-08-30T22:22:45.377Z,59.02
2022-08-30T22:25:13.053Z,59.33
2022-08-30T22:27:39.810Z,58.88
2022-08-30T22:30:07.112Z,59.18
2022-08-30T22:32:34.108Z,58.94
2022-08-30T22:35:01.179Z,59.59
2022-08-30T22:37:31.909Z,59.36
2022-08-30T22:39:59.004Z,59.61
2022-08-30T22:42:26.001Z,59.99
2022-08-30T22:44:52.895Z,59.73
2022-08-30T22:47:19.634Z,59.96
2022-08-30T22:49:46.366Z,60.31
2022-08-30T22:52:14.383Z,60.67
2022-08-30T22:54:41.119Z,60.89
2022-08-30T22:57:07.965Z,60.89
2022-08-30T22:59:34.753Z,60.94
2022-08-30T23:02:01.939Z,61.09
2022-08-30T23:04:28.849Z,61.21
2022-08-30T23:06:55.690Z,61.44
2022-08-30T23:09:22.909Z,62.36
2022-08-30T23:11:49.664Z,62.14
2022-08-30T23:14:16.481Z,62.41
2022-08-30T23:16:43.351Z,62.77
2022-08-30T23:19:10.107Z,62.81
2022-08-30T23:21:36.826Z,62.98
2022-08-30T23:24:22.750Z,62.39
2022-08-30T23:27:08.444Z,62.17
2022-08-30T23:29:54.729Z,62.33
2022-08-30T23:32:41.201Z,62.63
2022-08-30T23:35:29.898Z,63.15
2022-08-30T23:38:16.718Z,62.55
2022-08-30T23:41:02.342Z,63.60
2022-08-30T23:43:48.068Z,62.83
2022-08-30T23:46:33.575Z,62.45
2022-08-30T23:49:19.214Z,62.74
2022-08-30T23:52:04.488Z,62.59
2022-08-30T23:54:49.857Z,62.82
2022-08-30T23:57:35.530Z,63.22
